Etusivu
METAR-TAF:

METAR-TAF

Lentoasemat :

Slidell Airport

Slidell, Louisiana, Yhdysvallat

Leveyspiiri: 30-20-35N, Pituuspiiri: 089-49-19W, korkeus merenpinnasta: 9 m

Tämänhetkinen sää

Tämä raportti tehtiin 24 minuuttia sitten, kello 11.53 UTC
tyyntä
Lämpötila 2°C
Kosteus 93%
Ilmanpaine 1014 hPa
Näkyvyys: 16.1 km
selkeää

METAR: KASD 181153Z AUTO 00000KT 10SM CLR 02/01 A2994 RMK AO2 SLP139 T00220006 10072 20022 58001

Aika: 06:17 (12:17 UTC)

Sääennuste

Tämä raportti tehtiin 50 minuuttia sitten, kello 11.27 UTC
Ennuste voimassa 18. päivästä klo 12 UTC - 19. päivään klo 12 UTC
Tuuli 3 kn eri suunnista
Näkyvyys: 10 km
selkeää
From 18. päivästä klo 1800 UTC
Tuuli 5 kn lännestä/luoteesta
Näkyvyys: 10 km
selkeää
From 19. päivästä klo 0000 UTC
Tuuli kn pohjoisesta
Näkyvyys: 10 km
selkeää

TAF: KASD 181127Z 1812/1912 VRB03KT P6SM SKC FM181800 30005KT P6SM SKC FM190000 00000KT P6SM SKC

Säähavainnot ja -ennusteet yli 4000 lentoasemalta (METAR- ja TAF-raportit).

Käytössä olevat sääasemat on merkitty karttaan keltaisilla ja punaisilla pisteillä.

Aseta hiiri pisteen päälle nähdäksesi sääaseman nimen.

Klikkaa sitten nähdäksesi säähavainnot ja -ennusteet.

Kartan vaihtaminen: klikkaa mustalla rastilla varustettuja vihreitä pisteitä, niin voit zoomata sisään; viivalla varustettua vihreää pistettä, niin voit zoomata ulos tai vihreitä nuolia, niin pääset viereisille kartoille.


METAR-TAF: